Terminal Aerodrome Forecast
Issued by NWS

Home | Current Version | Previous Version | Text Only | Print | Product List | Glossary On
Versions: 1 2 3 4 5 6 7 8 9 10 11 12 13 14 15 16 17 18 19 20 21 22 23 24 25 26 27 28
000
FTUS44 KOUN 031731
TAFHBR
TAF
KHBR 031731Z 0318/0418 17010KT P6SM SCT060 BKN120
      TEMPO 0319/0323 P6SM -SHRA BKN080
     FM032300 16009KT P6SM FEW030 BKN060
      TEMPO 0400/0404 6SM -TSRA FEW030 BKN060CB
     FM040400 15006KT 5SM -SHRA SCT040 BKN060
     FM041200 17007KT P6SM SCT040 BKN100=

USA.gov is the U.S. government's official web portal to all federal, state and local government web resources and services.